sensor_id;sensor_type;location;lat;lon;timestamp;P1;durP1;ratioP1;P2;durP2;ratioP2
2546;SDS011;1283;47.982;7.834;2023-08-30T00:01:24;6.78;;;2.97;;
2546;SDS011;1283;47.982;7.834;2023-08-30T00:03:51;4.30;;;2.75;;
2546;SDS011;1283;47.982;7.834;2023-08-30T00:06:17;3.33;;;2.58;;
2546;SDS011;1283;47.982;7.834;2023-08-30T00:08:44;9.45;;;3.42;;
2546;SDS011;1283;47.982;7.834;2023-08-30T00:11:10;4.28;;;3.05;;
2546;SDS011;1283;47.982;7.834;2023-08-30T00:13:37;3.97;;;3.40;;
2546;SDS011;1283;47.982;7.834;2023-08-30T00:16:03;7.03;;;4.05;;
2546;SDS011;1283;47.982;7.834;2023-08-30T00:18:31;4.07;;;3.65;;
2546;SDS011;1283;47.982;7.834;2023-08-30T00:20:58;3.83;;;3.40;;
2546;SDS011;1283;47.982;7.834;2023-08-30T00:23:24;6.22;;;4.15;;
2546;SDS011;1283;47.982;7.834;2023-08-30T00:25:51;4.47;;;3.78;;
2546;SDS011;1283;47.982;7.834;2023-08-30T00:28:17;6.78;;;4.05;;
2546;SDS011;1283;47.982;7.834;2023-08-30T00:30:44;9.90;;;4.07;;
2546;SDS011;1283;47.982;7.834;2023-08-30T00:33:10;4.00;;;3.60;;
2546;SDS011;1283;47.982;7.834;2023-08-30T00:35:38;5.13;;;3.47;;
2546;SDS011;1283;47.982;7.834;2023-08-30T00:38:04;4.43;;;3.60;;
2546;SDS011;1283;47.982;7.834;2023-08-30T00:40:37;6.75;;;3.35;;
2546;SDS011;1283;47.982;7.834;2023-08-30T00:43:04;6.65;;;3.45;;
2546;SDS011;1283;47.982;7.834;2023-08-30T00:45:31;7.90;;;3.80;;
2546;SDS011;1283;47.982;7.834;2023-08-30T00:47:58;4.60;;;3.25;;
2546;SDS011;1283;47.982;7.834;2023-08-30T00:50:24;6.07;;;3.78;;
2546;SDS011;1283;47.982;7.834;2023-08-30T00:52:52;4.45;;;4.00;;
2546;SDS011;1283;47.982;7.834;2023-08-30T00:55:18;4.28;;;3.88;;
2546;SDS011;1283;47.982;7.834;2023-08-30T00:57:45;6.47;;;3.97;;
2546;SDS011;1283;47.982;7.834;2023-08-30T01:00:11;6.43;;;4.93;;
2546;SDS011;1283;47.982;7.834;2023-08-30T01:02:38;4.97;;;3.85;;
2546;SDS011;1283;47.982;7.834;2023-08-30T01:05:05;6.90;;;3.50;;
2546;SDS011;1283;47.982;7.834;2023-08-30T01:07:32;4.47;;;4.07;;
2546;SDS011;1283;47.982;7.834;2023-08-30T01:09:59;4.55;;;3.58;;
2546;SDS011;1283;47.982;7.834;2023-08-30T01:12:27;5.43;;;3.45;;
2546;SDS011;1283;47.982;7.834;2023-08-30T01:14:58;4.32;;;3.80;;
2546;SDS011;1283;47.982;7.834;2023-08-30T01:17:28;8.13;;;4.00;;
2546;SDS011;1283;47.982;7.834;2023-08-30T01:19:56;3.83;;;3.40;;
2546;SDS011;1283;47.982;7.834;2023-08-30T01:22:29;3.90;;;3.33;;
2546;SDS011;1283;47.982;7.834;2023-08-30T01:25:19;4.45;;;2.95;;
2546;SDS011;1283;47.982;7.834;2023-08-30T01:27:52;3.70;;;3.10;;
2546;SDS011;1283;47.982;7.834;2023-08-30T01:30:20;3.47;;;3.13;;
2546;SDS011;1283;47.982;7.834;2023-08-30T01:32:47;4.72;;;3.30;;
2546;SDS011;1283;47.982;7.834;2023-08-30T01:35:13;8.02;;;4.00;;
2546;SDS011;1283;47.982;7.834;2023-08-30T01:37:42;3.75;;;3.35;;
2546;SDS011;1283;47.982;7.834;2023-08-30T01:40:10;3.33;;;3.03;;
2546;SDS011;1283;47.982;7.834;2023-08-30T01:42:37;5.68;;;3.50;;
2546;SDS011;1283;47.982;7.834;2023-08-30T01:45:06;5.80;;;3.53;;
2546;SDS011;1283;47.982;7.834;2023-08-30T01:47:34;10.85;;;3.50;;
2546;SDS011;1283;47.982;7.834;2023-08-30T01:50:01;6.93;;;3.83;;
2546;SDS011;1283;47.982;7.834;2023-08-30T01:52:29;4.70;;;3.53;;
2546;SDS011;1283;47.982;7.834;2023-08-30T01:54:56;5.13;;;3.75;;
2546;SDS011;1283;47.982;7.834;2023-08-30T01:57:23;5.45;;;3.97;;
2546;SDS011;1283;47.982;7.834;2023-08-30T01:59:50;9.23;;;3.80;;
2546;SDS011;1283;47.982;7.834;2023-08-30T02:02:18;6.32;;;4.10;;
2546;SDS011;1283;47.982;7.834;2023-08-30T02:04:45;4.97;;;3.88;;
2546;SDS011;1283;47.982;7.834;2023-08-30T02:07:13;4.28;;;3.50;;
2546;SDS011;1283;47.982;7.834;2023-08-30T02:09:44;6.93;;;3.75;;
2546;SDS011;1283;47.982;7.834;2023-08-30T02:12:16;11.48;;;4.07;;
2546;SDS011;1283;47.982;7.834;2023-08-30T02:14:43;7.15;;;3.67;;
2546;SDS011;1283;47.982;7.834;2023-08-30T02:17:11;6.28;;;3.78;;
2546;SDS011;1283;47.982;7.834;2023-08-30T02:19:39;8.57;;;3.53;;
2546;SDS011;1283;47.982;7.834;2023-08-30T02:22:06;5.60;;;3.83;;
2546;SDS011;1283;47.982;7.834;2023-08-30T02:24:32;4.28;;;3.70;;
2546;SDS011;1283;47.982;7.834;2023-08-30T02:26:59;4.10;;;3.33;;
2546;SDS011;1283;47.982;7.834;2023-08-30T02:29:25;4.05;;;3.25;;
2546;SDS011;1283;47.982;7.834;2023-08-30T02:31:52;4.47;;;3.20;;
2546;SDS011;1283;47.982;7.834;2023-08-30T02:34:18;4.30;;;3.25;;
2546;SDS011;1283;47.982;7.834;2023-08-30T02:36:46;7.18;;;4.03;;
2546;SDS011;1283;47.982;7.834;2023-08-30T02:41:40;8.45;;;3.80;;
2546;SDS011;1283;47.982;7.834;2023-08-30T02:46:33;17.88;;;4.10;;
2546;SDS011;1283;47.982;7.834;2023-08-30T02:49:02;4.97;;;3.72;;
2546;SDS011;1283;47.982;7.834;2023-08-30T02:51:29;4.78;;;3.97;;
2546;SDS011;1283;47.982;7.834;2023-08-30T02:53:56;5.78;;;3.88;;
2546;SDS011;1283;47.982;7.834;2023-08-30T02:56:23;6.15;;;3.70;;
2546;SDS011;1283;47.982;7.834;2023-08-30T02:58:50;7.20;;;3.33;;
2546;SDS011;1283;47.982;7.834;2023-08-30T03:01:16;8.02;;;3.58;;
2546;SDS011;1283;47.982;7.834;2023-08-30T03:03:43;5.05;;;3.60;;
2546;SDS011;1283;47.982;7.834;2023-08-30T03:06:11;4.95;;;3.85;;
2546;SDS011;1283;47.982;7.834;2023-08-30T03:08:39;5.60;;;3.97;;
2546;SDS011;1283;47.982;7.834;2023-08-30T03:11:10;3.72;;;3.20;;
2546;SDS011;1283;47.982;7.834;2023-08-30T03:13:37;5.20;;;3.42;;
2546;SDS011;1283;47.982;7.834;2023-08-30T03:16:09;4.13;;;3.05;;
2546;SDS011;1283;47.982;7.834;2023-08-30T03:18:36;4.20;;;3.45;;
2546;SDS011;1283;47.982;7.834;2023-08-30T03:21:03;3.63;;;2.90;;
2546;SDS011;1283;47.982;7.834;2023-08-30T03:23:29;4.80;;;3.38;;
2546;SDS011;1283;47.982;7.834;2023-08-30T03:25:56;9.43;;;3.40;;
2546;SDS011;1283;47.982;7.834;2023-08-30T03:28:24;3.88;;;3.45;;
2546;SDS011;1283;47.982;7.834;2023-08-30T03:30:52;3.97;;;3.40;;
2546;SDS011;1283;47.982;7.834;2023-08-30T03:33:18;12.32;;;3.20;;
2546;SDS011;1283;47.982;7.834;2023-08-30T03:35:45;4.90;;;3.58;;
2546;SDS011;1283;47.982;7.834;2023-08-30T03:38:11;5.05;;;3.50;;
2546;SDS011;1283;47.982;7.834;2023-08-30T03:40:38;22.67;;;4.95;;
2546;SDS011;1283;47.982;7.834;2023-08-30T03:43:04;9.07;;;3.20;;
2546;SDS011;1283;47.982;7.834;2023-08-30T03:45:35;9.13;;;3.80;;
2546;SDS011;1283;47.982;7.834;2023-08-30T03:48:02;4.40;;;2.72;;
2546;SDS011;1283;47.982;7.834;2023-08-30T03:50:29;7.15;;;3.30;;
2546;SDS011;1283;47.982;7.834;2023-08-30T03:52:55;4.55;;;3.38;;
2546;SDS011;1283;47.982;7.834;2023-08-30T03:55:21;4.35;;;3.33;;
2546;SDS011;1283;47.982;7.834;2023-08-30T03:57:48;3.90;;;3.20;;
2546;SDS011;1283;47.982;7.834;2023-08-30T04:00:15;4.47;;;3.60;;
2546;SDS011;1283;47.982;7.834;2023-08-30T04:02:43;4.90;;;3.47;;
2546;SDS011;1283;47.982;7.834;2023-08-30T04:05:10;4.03;;;3.58;;
2546;SDS011;1283;47.982;7.834;2023-08-30T04:07:36;6.78;;;4.28;;
2546;SDS011;1283;47.982;7.834;2023-08-30T04:10:03;9.98;;;4.00;;
2546;SDS011;1283;47.982;7.834;2023-08-30T04:12:32;6.25;;;4.03;;
2546;SDS011;1283;47.982;7.834;2023-08-30T04:14:58;4.53;;;3.72;;
2546;SDS011;1283;47.982;7.834;2023-08-30T04:17:25;4.25;;;3.35;;
2546;SDS011;1283;47.982;7.834;2023-08-30T04:19:53;4.03;;;3.55;;
2546;SDS011;1283;47.982;7.834;2023-08-30T04:22:20;7.28;;;3.72;;
2546;SDS011;1283;47.982;7.834;2023-08-30T04:24:46;10.70;;;3.83;;
2546;SDS011;1283;47.982;7.834;2023-08-30T04:27:13;5.15;;;4.05;;
2546;SDS011;1283;47.982;7.834;2023-08-30T04:29:39;4.05;;;3.35;;
2546;SDS011;1283;47.982;7.834;2023-08-30T04:32:09;6.53;;;3.83;;
2546;SDS011;1283;47.982;7.834;2023-08-30T04:34:36;4.43;;;3.20;;
2546;SDS011;1283;47.982;7.834;2023-08-30T04:37:04;9.35;;;3.00;;
2546;SDS011;1283;47.982;7.834;2023-08-30T04:39:30;13.30;;;3.83;;
2546;SDS011;1283;47.982;7.834;2023-08-30T04:41:57;4.15;;;3.17;;
2546;SDS011;1283;47.982;7.834;2023-08-30T04:44:23;4.70;;;3.25;;
2546;SDS011;1283;47.982;7.834;2023-08-30T04:46:52;4.68;;;3.80;;
2546;SDS011;1283;47.982;7.834;2023-08-30T04:49:19;8.38;;;3.67;;
2546;SDS011;1283;47.982;7.834;2023-08-30T04:51:46;4.68;;;3.28;;
2546;SDS011;1283;47.982;7.834;2023-08-30T04:54:13;6.18;;;3.28;;
2546;SDS011;1283;47.982;7.834;2023-08-30T04:56:40;4.03;;;2.95;;
2546;SDS011;1283;47.982;7.834;2023-08-30T04:59:06;6.40;;;2.90;;
2546;SDS011;1283;47.982;7.834;2023-08-30T05:01:33;3.97;;;3.20;;
2546;SDS011;1283;47.982;7.834;2023-08-30T05:03:59;3.50;;;2.78;;
2546;SDS011;1283;47.982;7.834;2023-08-30T05:06:25;3.45;;;2.85;;
2546;SDS011;1283;47.982;7.834;2023-08-30T05:08:52;9.63;;;2.80;;
2546;SDS011;1283;47.982;7.834;2023-08-30T05:11:20;6.50;;;2.80;;
2546;SDS011;1283;47.982;7.834;2023-08-30T05:13:46;6.47;;;3.38;;
2546;SDS011;1283;47.982;7.834;2023-08-30T05:16:13;6.88;;;2.90;;
2546;SDS011;1283;47.982;7.834;2023-08-30T05:18:39;8.27;;;3.00;;
2546;SDS011;1283;47.982;7.834;2023-08-30T05:21:06;4.95;;;2.58;;
2546;SDS011;1283;47.982;7.834;2023-08-30T05:23:32;3.95;;;2.47;;
2546;SDS011;1283;47.982;7.834;2023-08-30T05:25:58;3.72;;;2.53;;
2546;SDS011;1283;47.982;7.834;2023-08-30T05:28:26;4.53;;;2.30;;
2546;SDS011;1283;47.982;7.834;2023-08-30T05:30:53;3.13;;;2.55;;
2546;SDS011;1283;47.982;7.834;2023-08-30T05:33:19;4.05;;;2.45;;
2546;SDS011;1283;47.982;7.834;2023-08-30T05:35:46;4.43;;;2.72;;
2546;SDS011;1283;47.982;7.834;2023-08-30T05:38:12;3.35;;;2.33;;
2546;SDS011;1283;47.982;7.834;2023-08-30T05:40:38;3.70;;;2.25;;
2546;SDS011;1283;47.982;7.834;2023-08-30T05:43:07;3.05;;;2.33;;
2546;SDS011;1283;47.982;7.834;2023-08-30T05:45:35;3.85;;;2.08;;
2546;SDS011;1283;47.982;7.834;2023-08-30T05:48:02;2.78;;;2.20;;
2546;SDS011;1283;47.982;7.834;2023-08-30T05:50:29;3.53;;;2.53;;
2546;SDS011;1283;47.982;7.834;2023-08-30T05:52:55;3.22;;;1.98;;
2546;SDS011;1283;47.982;7.834;2023-08-30T05:55:22;4.25;;;2.30;;
2546;SDS011;1283;47.982;7.834;2023-08-30T05:57:48;3.33;;;2.47;;
2546;SDS011;1283;47.982;7.834;2023-08-30T06:00:15;6.15;;;2.50;;
2546;SDS011;1283;47.982;7.834;2023-08-30T06:02:43;3.38;;;2.40;;
2546;SDS011;1283;47.982;7.834;2023-08-30T06:05:10;2.88;;;2.13;;
2546;SDS011;1283;47.982;7.834;2023-08-30T06:07:36;6.03;;;2.50;;
2546;SDS011;1283;47.982;7.834;2023-08-30T06:10:03;5.25;;;2.45;;
2546;SDS011;1283;47.982;7.834;2023-08-30T06:12:30;4.35;;;2.28;;
2546;SDS011;1283;47.982;7.834;2023-08-30T06:14:56;6.22;;;2.30;;
2546;SDS011;1283;47.982;7.834;2023-08-30T06:17:23;4.85;;;2.10;;
2546;SDS011;1283;47.982;7.834;2023-08-30T06:19:50;7.82;;;2.50;;
2546;SDS011;1283;47.982;7.834;2023-08-30T06:22:17;5.45;;;2.40;;
2546;SDS011;1283;47.982;7.834;2023-08-30T06:24:43;5.28;;;2.25;;
2546;SDS011;1283;47.982;7.834;2023-08-30T06:27:10;2.95;;;2.53;;
2546;SDS011;1283;47.982;7.834;2023-08-30T06:29:36;3.13;;;2.30;;
2546;SDS011;1283;47.982;7.834;2023-08-30T06:32:03;2.80;;;2.20;;
2546;SDS011;1283;47.982;7.834;2023-08-30T06:34:30;2.83;;;2.00;;
2546;SDS011;1283;47.982;7.834;2023-08-30T06:36:58;4.55;;;2.30;;
2546;SDS011;1283;47.982;7.834;2023-08-30T06:39:24;4.07;;;2.40;;
2546;SDS011;1283;47.982;7.834;2023-08-30T06:41:50;3.70;;;2.05;;
2546;SDS011;1283;47.982;7.834;2023-08-30T06:44:17;4.55;;;2.10;;
2546;SDS011;1283;47.982;7.834;2023-08-30T06:46:43;3.03;;;2.35;;
2546;SDS011;1283;47.982;7.834;2023-08-30T06:49:10;5.68;;;2.50;;
2546;SDS011;1283;47.982;7.834;2023-08-30T06:51:36;2.42;;;1.98;;
2546;SDS011;1283;47.982;7.834;2023-08-30T06:54:04;4.00;;;2.30;;
2546;SDS011;1283;47.982;7.834;2023-08-30T06:56:31;4.30;;;2.03;;
2546;SDS011;1283;47.982;7.834;2023-08-30T06:58:57;4.63;;;2.15;;
2546;SDS011;1283;47.982;7.834;2023-08-30T07:01:24;4.50;;;2.00;;
2546;SDS011;1283;47.982;7.834;2023-08-30T07:03:50;2.08;;;1.88;;
2546;SDS011;1283;47.982;7.834;2023-08-30T07:06:16;3.25;;;1.90;;
2546;SDS011;1283;47.982;7.834;2023-08-30T07:08:43;2.72;;;2.22;;
2546;SDS011;1283;47.982;7.834;2023-08-30T07:11:11;2.08;;;1.88;;
2546;SDS011;1283;47.982;7.834;2023-08-30T07:13:37;3.08;;;2.00;;
2546;SDS011;1283;47.982;7.834;2023-08-30T07:16:03;2.08;;;1.80;;
2546;SDS011;1283;47.982;7.834;2023-08-30T07:18:30;2.15;;;1.90;;
2546;SDS011;1283;47.982;7.834;2023-08-30T07:20:56;3.50;;;1.83;;
2546;SDS011;1283;47.982;7.834;2023-08-30T07:23:23;2.40;;;2.03;;
2546;SDS011;1283;47.982;7.834;2023-08-30T07:25:51;7.72;;;1.90;;
2546;SDS011;1283;47.982;7.834;2023-08-30T07:28:19;5.00;;;1.95;;
2546;SDS011;1283;47.982;7.834;2023-08-30T07:30:45;4.05;;;2.25;;
2546;SDS011;1283;47.982;7.834;2023-08-30T07:33:11;3.30;;;1.80;;
2546;SDS011;1283;47.982;7.834;2023-08-30T07:35:38;4.18;;;2.03;;
2546;SDS011;1283;47.982;7.834;2023-08-30T07:38:05;2.08;;;1.70;;
2546;SDS011;1283;47.982;7.834;2023-08-30T07:40:31;2.95;;;2.00;;
2546;SDS011;1283;47.982;7.834;2023-08-30T07:42:58;3.65;;;1.80;;
2546;SDS011;1283;47.982;7.834;2023-08-30T07:45:26;3.00;;;1.77;;
2546;SDS011;1283;47.982;7.834;2023-08-30T07:47:52;2.45;;;1.85;;
2546;SDS011;1283;47.982;7.834;2023-08-30T07:50:19;5.80;;;1.80;;
2546;SDS011;1283;47.982;7.834;2023-08-30T07:52:45;4.97;;;1.80;;
2546;SDS011;1283;47.982;7.834;2023-08-30T07:55:12;4.68;;;1.60;;
2546;SDS011;1283;47.982;7.834;2023-08-30T07:57:39;2.38;;;1.42;;
2546;SDS011;1283;47.982;7.834;2023-08-30T08:00:06;2.03;;;1.60;;
2546;SDS011;1283;47.982;7.834;2023-08-30T08:02:35;1.65;;;1.42;;
2546;SDS011;1283;47.982;7.834;2023-08-30T08:05:01;1.77;;;1.60;;
2546;SDS011;1283;47.982;7.834;2023-08-30T08:07:28;3.13;;;1.70;;
2546;SDS011;1283;47.982;7.834;2023-08-30T08:09:54;5.25;;;1.90;;
2546;SDS011;1283;47.982;7.834;2023-08-30T08:12:21;3.08;;;1.85;;
2546;SDS011;1283;47.982;7.834;2023-08-30T08:14:47;3.42;;;1.67;;
2546;SDS011;1283;47.982;7.834;2023-08-30T08:17:14;4.55;;;1.60;;
2546;SDS011;1283;47.982;7.834;2023-08-30T08:19:42;2.50;;;1.73;;
2546;SDS011;1283;47.982;7.834;2023-08-30T08:22:09;5.10;;;2.17;;
2546;SDS011;1283;47.982;7.834;2023-08-30T08:24:35;2.95;;;1.88;;
2546;SDS011;1283;47.982;7.834;2023-08-30T08:27:02;4.45;;;2.00;;
2546;SDS011;1283;47.982;7.834;2023-08-30T08:29:30;2.70;;;1.92;;
2546;SDS011;1283;47.982;7.834;2023-08-30T08:31:57;3.38;;;1.80;;
2546;SDS011;1283;47.982;7.834;2023-08-30T08:34:23;6.15;;;2.10;;
2546;SDS011;1283;47.982;7.834;2023-08-30T08:36:51;2.30;;;1.95;;
2546;SDS011;1283;47.982;7.834;2023-08-30T08:39:17;2.40;;;1.83;;
2546;SDS011;1283;47.982;7.834;2023-08-30T08:41:44;4.55;;;2.60;;
2546;SDS011;1283;47.982;7.834;2023-08-30T08:44:11;7.20;;;3.30;;
2546;SDS011;1283;47.982;7.834;2023-08-30T08:46:38;4.55;;;2.50;;
2546;SDS011;1283;47.982;7.834;2023-08-30T08:49:08;5.38;;;2.75;;
2546;SDS011;1283;47.982;7.834;2023-08-30T08:51:35;3.17;;;2.60;;
2546;SDS011;1283;47.982;7.834;2023-08-30T08:54:05;2.88;;;2.42;;
2546;SDS011;1283;47.982;7.834;2023-08-30T08:56:32;4.35;;;3.03;;
2546;SDS011;1283;47.982;7.834;2023-08-30T08:58:59;6.57;;;3.13;;
2546;SDS011;1283;47.982;7.834;2023-08-30T09:01:25;2.80;;;2.60;;
2546;SDS011;1283;47.982;7.834;2023-08-30T09:03:52;7.32;;;3.22;;
2546;SDS011;1283;47.982;7.834;2023-08-30T09:06:19;4.68;;;3.00;;
2546;SDS011;1283;47.982;7.834;2023-08-30T09:08:45;3.38;;;2.60;;
2546;SDS011;1283;47.982;7.834;2023-08-30T09:11:13;4.18;;;3.20;;
2546;SDS011;1283;47.982;7.834;2023-08-30T09:13:40;5.63;;;3.35;;
2546;SDS011;1283;47.982;7.834;2023-08-30T09:16:11;4.30;;;2.70;;
2546;SDS011;1283;47.982;7.834;2023-08-30T09:18:38;3.90;;;2.70;;
2546;SDS011;1283;47.982;7.834;2023-08-30T09:21:05;4.35;;;2.90;;
2546;SDS011;1283;47.982;7.834;2023-08-30T09:23:32;4.03;;;2.75;;
2546;SDS011;1283;47.982;7.834;2023-08-30T09:25:59;8.00;;;2.70;;
2546;SDS011;1283;47.982;7.834;2023-08-30T09:28:27;6.72;;;3.00;;
2546;SDS011;1283;47.982;7.834;2023-08-30T09:30:53;4.50;;;2.78;;
2546;SDS011;1283;47.982;7.834;2023-08-30T09:33:20;7.30;;;2.88;;
2546;SDS011;1283;47.982;7.834;2023-08-30T09:35:47;3.38;;;2.55;;
2546;SDS011;1283;47.982;7.834;2023-08-30T09:38:17;3.15;;;2.72;;
2546;SDS011;1283;47.982;7.834;2023-08-30T09:40:44;3.47;;;2.75;;
2546;SDS011;1283;47.982;7.834;2023-08-30T09:43:11;3.13;;;2.67;;
2546;SDS011;1283;47.982;7.834;2023-08-30T09:45:39;5.15;;;2.65;;
2546;SDS011;1283;47.982;7.834;2023-08-30T09:48:05;4.40;;;3.35;;
2546;SDS011;1283;47.982;7.834;2023-08-30T09:50:33;4.40;;;2.30;;
2546;SDS011;1283;47.982;7.834;2023-08-30T09:53:00;7.15;;;4.63;;
2546;SDS011;1283;47.982;7.834;2023-08-30T09:55:29;3.67;;;2.38;;
2546;SDS011;1283;47.982;7.834;2023-08-30T09:57:56;6.25;;;2.80;;
2546;SDS011;1283;47.982;7.834;2023-08-30T10:00:22;7.30;;;2.63;;
2546;SDS011;1283;47.982;7.834;2023-08-30T10:02:50;4.40;;;2.47;;
2546;SDS011;1283;47.982;7.834;2023-08-30T10:05:17;4.43;;;3.08;;
2546;SDS011;1283;47.982;7.834;2023-08-30T10:07:45;3.45;;;2.45;;
2546;SDS011;1283;47.982;7.834;2023-08-30T10:10:12;4.97;;;2.47;;
2546;SDS011;1283;47.982;7.834;2023-08-30T10:12:38;5.53;;;2.38;;
2546;SDS011;1283;47.982;7.834;2023-08-30T10:15:05;2.45;;;2.25;;
2546;SDS011;1283;47.982;7.834;2023-08-30T10:17:32;4.90;;;2.40;;
2546;SDS011;1283;47.982;7.834;2023-08-30T10:20:03;5.60;;;2.65;;
2546;SDS011;1283;47.982;7.834;2023-08-30T10:22:30;5.70;;;2.38;;
2546;SDS011;1283;47.982;7.834;2023-08-30T10:24:58;3.90;;;2.10;;
2546;SDS011;1283;47.982;7.834;2023-08-30T10:27:26;3.92;;;1.88;;
2546;SDS011;1283;47.982;7.834;2023-08-30T10:29:53;2.47;;;2.25;;
2546;SDS011;1283;47.982;7.834;2023-08-30T10:32:20;3.63;;;2.40;;
2546;SDS011;1283;47.982;7.834;2023-08-30T10:34:47;3.35;;;2.15;;
2546;SDS011;1283;47.982;7.834;2023-08-30T10:37:15;6.53;;;2.40;;
2546;SDS011;1283;47.982;7.834;2023-08-30T10:39:42;3.05;;;2.10;;
2546;SDS011;1283;47.982;7.834;2023-08-30T10:42:09;5.05;;;2.17;;
2546;SDS011;1283;47.982;7.834;2023-08-30T10:44:46;3.08;;;1.98;;
2546;SDS011;1283;47.982;7.834;2023-08-30T10:47:17;3.42;;;2.40;;
2546;SDS011;1283;47.982;7.834;2023-08-30T10:49:44;3.42;;;1.75;;
2546;SDS011;1283;47.982;7.834;2023-08-30T10:52:12;2.42;;;1.80;;
2546;SDS011;1283;47.982;7.834;2023-08-30T10:54:40;3.15;;;2.05;;
2546;SDS011;1283;47.982;7.834;2023-08-30T10:57:12;4.45;;;2.20;;
2546;SDS011;1283;47.982;7.834;2023-08-30T10:59:39;2.90;;;2.35;;
2546;SDS011;1283;47.982;7.834;2023-08-30T11:02:05;2.03;;;1.65;;
2546;SDS011;1283;47.982;7.834;2023-08-30T11:04:32;2.80;;;2.00;;
2546;SDS011;1283;47.982;7.834;2023-08-30T11:06:58;1.95;;;1.60;;
2546;SDS011;1283;47.982;7.834;2023-08-30T11:09:25;1.98;;;1.67;;
2546;SDS011;1283;47.982;7.834;2023-08-30T11:11:53;4.63;;;2.30;;
2546;SDS011;1283;47.982;7.834;2023-08-30T11:14:19;4.03;;;2.00;;
2546;SDS011;1283;47.982;7.834;2023-08-30T11:16:45;6.05;;;2.08;;
2546;SDS011;1283;47.982;7.834;2023-08-30T11:19:12;3.42;;;2.28;;
2546;SDS011;1283;47.982;7.834;2023-08-30T11:21:39;4.80;;;2.40;;
2546;SDS011;1283;47.982;7.834;2023-08-30T11:24:06;3.00;;;2.20;;
2546;SDS011;1283;47.982;7.834;2023-08-30T11:26:33;3.90;;;2.30;;
2546;SDS011;1283;47.982;7.834;2023-08-30T11:29:05;3.13;;;2.08;;
2546;SDS011;1283;47.982;7.834;2023-08-30T11:31:31;2.97;;;2.08;;
2546;SDS011;1283;47.982;7.834;2023-08-30T11:33:58;3.00;;;2.10;;
2546;SDS011;1283;47.982;7.834;2023-08-30T11:36:26;4.00;;;2.83;;
2546;SDS011;1283;47.982;7.834;2023-08-30T11:38:53;3.35;;;2.70;;
2546;SDS011;1283;47.982;7.834;2023-08-30T11:41:20;3.15;;;2.33;;
2546;SDS011;1283;47.982;7.834;2023-08-30T11:43:46;3.40;;;2.65;;
2546;SDS011;1283;47.982;7.834;2023-08-30T11:46:15;7.05;;;2.65;;
2546;SDS011;1283;47.982;7.834;2023-08-30T11:48:42;5.25;;;3.17;;
2546;SDS011;1283;47.982;7.834;2023-08-30T11:51:10;9.10;;;3.03;;
2546;SDS011;1283;47.982;7.834;2023-08-30T11:53:36;11.50;;;3.20;;
2546;SDS011;1283;47.982;7.834;2023-08-30T11:56:03;3.25;;;2.47;;
2546;SDS011;1283;47.982;7.834;2023-08-30T11:58:31;3.47;;;2.22;;
2546;SDS011;1283;47.982;7.834;2023-08-30T12:00:58;5.07;;;2.30;;
2546;SDS011;1283;47.982;7.834;2023-08-30T12:03:27;3.28;;;2.33;;
2546;SDS011;1283;47.982;7.834;2023-08-30T12:05:53;2.80;;;2.30;;
2546;SDS011;1283;47.982;7.834;2023-08-30T12:08:20;4.18;;;2.22;;
2546;SDS011;1283;47.982;7.834;2023-08-30T12:10:47;5.20;;;2.50;;
2546;SDS011;1283;47.982;7.834;2023-08-30T12:13:20;5.85;;;2.40;;
2546;SDS011;1283;47.982;7.834;2023-08-30T12:15:49;2.53;;;1.80;;
2546;SDS011;1283;47.982;7.834;2023-08-30T12:18:16;7.93;;;2.20;;
2546;SDS011;1283;47.982;7.834;2023-08-30T12:20:53;4.05;;;2.30;;
2546;SDS011;1283;47.982;7.834;2023-08-30T12:23:20;2.10;;;1.90;;
2546;SDS011;1283;47.982;7.834;2023-08-30T12:25:57;3.67;;;1.58;;
2546;SDS011;1283;47.982;7.834;2023-08-30T12:28:25;1.95;;;1.70;;
2546;SDS011;1283;47.982;7.834;2023-08-30T12:30:52;2.15;;;1.80;;
2546;SDS011;1283;47.982;7.834;2023-08-30T12:33:18;5.47;;;1.63;;
2546;SDS011;1283;47.982;7.834;2023-08-30T12:35:45;3.17;;;1.60;;
2546;SDS011;1283;47.982;7.834;2023-08-30T12:38:12;1.88;;;1.50;;
2546;SDS011;1283;47.982;7.834;2023-08-30T12:40:42;2.72;;;1.63;;
2546;SDS011;1283;47.982;7.834;2023-08-30T12:43:09;2.55;;;1.40;;
2546;SDS011;1283;47.982;7.834;2023-08-30T12:45:37;1.90;;;1.38;;
2546;SDS011;1283;47.982;7.834;2023-08-30T12:48:04;3.72;;;1.60;;
2546;SDS011;1283;47.982;7.834;2023-08-30T12:50:31;4.22;;;1.63;;
2546;SDS011;1283;47.982;7.834;2023-08-30T12:52:57;1.63;;;1.42;;
2546;SDS011;1283;47.982;7.834;2023-08-30T12:55:25;3.28;;;1.80;;
2546;SDS011;1283;47.982;7.834;2023-08-30T12:57:51;2.25;;;1.60;;
2546;SDS011;1283;47.982;7.834;2023-08-30T13:00:18;5.50;;;1.50;;
2546;SDS011;1283;47.982;7.834;2023-08-30T13:02:45;1.73;;;1.45;;
2546;SDS011;1283;47.982;7.834;2023-08-30T13:05:11;1.73;;;1.60;;
2546;SDS011;1283;47.982;7.834;2023-08-30T13:07:38;2.58;;;1.83;;
2546;SDS011;1283;47.982;7.834;2023-08-30T13:10:05;4.85;;;1.70;;
2546;SDS011;1283;47.982;7.834;2023-08-30T13:12:34;3.50;;;1.92;;
2546;SDS011;1283;47.982;7.834;2023-08-30T13:15:01;4.25;;;2.35;;
2546;SDS011;1283;47.982;7.834;2023-08-30T13:17:27;2.38;;;1.88;;
2546;SDS011;1283;47.982;7.834;2023-08-30T13:19:53;3.33;;;2.03;;
2546;SDS011;1283;47.982;7.834;2023-08-30T13:22:20;3.13;;;1.70;;
2546;SDS011;1283;47.982;7.834;2023-08-30T13:24:47;5.35;;;1.98;;
2546;SDS011;1283;47.982;7.834;2023-08-30T13:27:13;2.63;;;1.45;;
2546;SDS011;1283;47.982;7.834;2023-08-30T13:29:41;5.22;;;1.60;;
2546;SDS011;1283;47.982;7.834;2023-08-30T13:32:07;3.28;;;1.85;;
2546;SDS011;1283;47.982;7.834;2023-08-30T13:34:34;5.57;;;1.80;;
2546;SDS011;1283;47.982;7.834;2023-08-30T13:37:00;2.75;;;1.48;;
2546;SDS011;1283;47.982;7.834;2023-08-30T13:39:27;3.28;;;2.03;;
2546;SDS011;1283;47.982;7.834;2023-08-30T13:41:53;3.30;;;1.80;;
2546;SDS011;1283;47.982;7.834;2023-08-30T13:44:20;2.42;;;1.50;;
2546;SDS011;1283;47.982;7.834;2023-08-30T13:46:47;3.17;;;1.50;;
2546;SDS011;1283;47.982;7.834;2023-08-30T13:49:16;5.13;;;1.58;;
2546;SDS011;1283;47.982;7.834;2023-08-30T13:51:43;5.10;;;1.83;;
2546;SDS011;1283;47.982;7.834;2023-08-30T13:54:10;2.45;;;1.50;;
2546;SDS011;1283;47.982;7.834;2023-08-30T13:56:36;1.52;;;1.40;;
2546;SDS011;1283;47.982;7.834;2023-08-30T13:59:03;3.85;;;1.60;;
2546;SDS011;1283;47.982;7.834;2023-08-30T14:01:31;2.60;;;1.20;;
2546;SDS011;1283;47.982;7.834;2023-08-30T14:03:58;3.03;;;1.40;;
2546;SDS011;1283;47.982;7.834;2023-08-30T14:06:25;2.75;;;1.50;;
2546;SDS011;1283;47.982;7.834;2023-08-30T14:08:51;1.83;;;1.45;;
2546;SDS011;1283;47.982;7.834;2023-08-30T14:11:18;3.25;;;1.40;;
2546;SDS011;1283;47.982;7.834;2023-08-30T14:13:45;3.85;;;1.70;;
2546;SDS011;1283;47.982;7.834;2023-08-30T14:16:11;2.65;;;1.75;;
2546;SDS011;1283;47.982;7.834;2023-08-30T14:18:38;6.88;;;1.80;;
2546;SDS011;1283;47.982;7.834;2023-08-30T14:21:06;4.65;;;1.63;;
2546;SDS011;1283;47.982;7.834;2023-08-30T14:23:32;2.30;;;1.77;;
2546;SDS011;1283;47.982;7.834;2023-08-30T14:26:02;2.15;;;1.63;;
2546;SDS011;1283;47.982;7.834;2023-08-30T14:28:33;4.32;;;1.60;;
2546;SDS011;1283;47.982;7.834;2023-08-30T14:31:00;2.33;;;1.48;;
2546;SDS011;1283;47.982;7.834;2023-08-30T14:33:27;5.43;;;1.95;;
2546;SDS011;1283;47.982;7.834;2023-08-30T14:35:54;1.85;;;1.55;;
2546;SDS011;1283;47.982;7.834;2023-08-30T14:38:22;2.60;;;1.80;;
2546;SDS011;1283;47.982;7.834;2023-08-30T14:40:54;3.35;;;1.77;;
2546;SDS011;1283;47.982;7.834;2023-08-30T14:43:21;2.20;;;1.58;;
2546;SDS011;1283;47.982;7.834;2023-08-30T14:45:48;2.50;;;1.50;;
2546;SDS011;1283;47.982;7.834;2023-08-30T14:48:14;4.38;;;1.70;;
2546;SDS011;1283;47.982;7.834;2023-08-30T14:50:41;6.18;;;1.75;;
2546;SDS011;1283;47.982;7.834;2023-08-30T14:53:08;3.08;;;1.63;;
2546;SDS011;1283;47.982;7.834;2023-08-30T14:55:36;8.05;;;2.08;;
2546;SDS011;1283;47.982;7.834;2023-08-30T14:58:02;3.30;;;1.40;;
2546;SDS011;1283;47.982;7.834;2023-08-30T15:00:29;2.20;;;1.45;;
2546;SDS011;1283;47.982;7.834;2023-08-30T15:02:55;6.20;;;1.88;;
2546;SDS011;1283;47.982;7.834;2023-08-30T15:05:22;3.13;;;1.50;;
2546;SDS011;1283;47.982;7.834;2023-08-30T15:07:48;4.82;;;1.40;;
2546;SDS011;1283;47.982;7.834;2023-08-30T15:10:15;3.35;;;1.88;;
2546;SDS011;1283;47.982;7.834;2023-08-30T15:12:43;3.05;;;1.50;;
2546;SDS011;1283;47.982;7.834;2023-08-30T15:15:10;3.88;;;1.48;;
2546;SDS011;1283;47.982;7.834;2023-08-30T15:17:36;5.82;;;1.20;;
2546;SDS011;1283;47.982;7.834;2023-08-30T15:20:03;2.00;;;1.27;;